| time (UTC) | temp F | wind direction | speed MPH | gust MPH | rain 1hr in | rain 24hr in | rain mn in | humidity % | barometer mb |
| 20260509085355 | 53 | 266 | 2.0 | 4.0 | 0.00 | 0.00 | 0.00 | 90 | 1007.6 |
| 20260509084343 | 52 | 263 | 2.0 | 3.0 | 0.00 | 0.00 | 0.00 | 91 | 1007.6 |
| 20260509083340 | 52 | 266 | 2.0 | 3.0 | 0.00 | 0.00 | 0.00 | 92 | 1007.5 |
| 20260509082349 | 52 | 256 | 1.0 | 2.0 | 0.00 | 0.00 | 0.00 | 93 | 1007.4 |
| 20260509081336 | 52 | 256 | 0.0 | 1.0 | 0.00 | 0.00 | 0.00 | 94 | 1007.4 |
| 20260509080354 | 52 | 256 | 0.0 | 1.0 | 0.00 | 0.00 | 0.00 | 93 | 1007.4 |
| 20260509075334 | 52 | 256 | 0.0 | 1.0 | 0.00 | 0.00 | 0.00 | 93 | 1007.3 |
| 20260509074341 | 52 | 256 | 0.0 | 1.0 | 0.00 | 0.00 | 0.00 | 94 | 1007.4 |
| 20260509072331 | 52 | 238 | 0.0 | 1.0 | 0.00 | 0.00 | 0.00 | 93 | 1007.6 |
| 20260509071338 | 52 | 239 | 0.0 | 1.0 | 0.00 | 0.00 | 0.00 | 92 | 1007.7 |
| 20260509070356 | 53 | 240 | 0.0 | 1.0 | 0.00 | 0.00 | 0.00 | 91 | 1007.8 |
| 20260509065334 | 53 | 235 | 0.0 | 2.0 | 0.00 | 0.00 | 0.00 | 91 | 1007.9 |
| 20260509064341 | 54 | 235 | 1.0 | 3.0 | 0.00 | 0.00 | 0.00 | 91 | 1007.9 |
| 20260509063340 | 54 | 225 | 1.0 | 3.0 | 0.00 | 0.00 | 0.00 | 90 | 1007.8 |
| 20260509062346 | 54 | 226 | 2.0 | 4.0 | 0.00 | 0.00 | 0.00 | 91 | 1007.9 |
| 20260509061333 | 54 | 236 | 2.0 | 3.0 | 0.00 | 0.00 | 0.00 | 91 | 1007.9 |
| 20260509060350 | 54 | 225 | 2.0 | 3.0 | 0.00 | 0.00 | 0.00 | 91 | 1008.0 |
| 20260509055337 | 54 | 250 | 2.0 | 4.0 | 0.00 | 0.00 | 0.00 | 91 | 1008.0 |
| 20260509054343 | 54 | 229 | 1.0 | 3.0 | 0.00 | 0.00 | 0.00 | 90 | 1007.9 |
| 20260509053343 | 54 | 217 | 1.0 | 3.0 | 0.00 | 0.00 | 0.00 | 89 | 1007.8 |
| 20260509052348 | 54 | 243 | 1.0 | 4.0 | 0.00 | 0.00 | 0.00 | 89 | 1007.9 |
| 20260509051334 | 55 | 228 | 1.0 | 4.0 | 0.00 | 0.00 | 0.00 | 88 | 1008.0 |
| 20260509050351 | 55 | 240 | 3.0 | 4.0 | 0.00 | 0.00 | 0.00 | 87 | 1008.1 |
| 20260509045410 | 55 | 230 | 2.0 | 5.0 | 0.00 | 0.00 | 0.00 | 87 | 1008.1 |
| 20260509044338 | 56 | 232 | 4.0 | 6.0 | 0.00 | 0.00 | 0.00 | 86 | 1008.1 |
| 20260509043352 | 56 | 211 | 2.0 | 4.0 | 0.00 | 0.00 | 0.00 | 85 | 1008.1 |
| 20260509042332 | 56 | 237 | 3.0 | 6.0 | 0.00 | 0.00 | 0.00 | 84 | 1008.1 |
| 20260509041337 | 56 | 239 | 3.0 | 4.0 | 0.00 | 0.00 | 0.00 | 83 | 1008.2 |
| 20260509040356 | 57 | 232 | 3.0 | 5.0 | 0.00 | 0.00 | 0.00 | 82 | 1008.3 |
| 20260509035356 | 57 | 231 | 2.0 | 5.0 | 0.00 | 0.00 | 0.00 | 82 | 1008.2 |
| 20260509034340 | 57 | 229 | 2.0 | 5.0 | 0.00 | 0.00 | 0.00 | 81 | 1008.1 |
| 20260509033340 | 57 | 240 | 2.0 | 4.0 | 0.00 | 0.00 | 0.00 | 80 | 1008.2 |
| 20260509032349 | 56 | 236 | 2.0 | 4.0 | 0.00 | 0.00 | 0.00 | 81 | 1008.1 |
| 20260509032035 | 56 | 252 | 2.0 | 4.0 | 0.00 | 0.00 | 0.00 | 81 | 1008.1 |
| 20260509030330 | 56 | 225 | 0.0 | 2.0 | 0.00 | 0.00 | 0.00 | 80 | 1008.0 |
| 20260509025338 | 56 | 224 | 0.0 | 0.0 | 0.00 | 0.00 | 0.00 | 77 | 1008.0 |
| 20260509024359 | 57 | 225 | 0.0 | 1.0 | 0.00 | 0.00 | 0.00 | 77 | 1007.9 |
| 20260509023334 | 57 | 225 | 1.0 | 2.0 | 0.00 | 0.00 | 0.00 | 78 | 1007.9 |
| 20260509022336 | 58 | 225 | 0.0 | 0.0 | 0.00 | 0.00 | 0.00 | 75 | 1007.6 |
| 20260509021802 | 58 | 225 | 0.0 | 1.0 | 0.00 | 0.00 | 0.00 | 73 | 1007.6 |
| 20260509020336 | 59 | 224 | 0.0 | 2.0 | 0.00 | 0.00 | 0.00 | 73 | 1007.5 |
| 20260509015342 | 60 | 225 | 0.0 | 1.0 | 0.00 | 0.00 | 0.00 | 71 | 1007.4 |
| 20260509014331 | 61 | 225 | 0.0 | 2.0 | 0.00 | 0.00 | 0.00 | 69 | 1007.3 |
| 20260509013350 | 62 | 219 | 1.0 | 4.0 | 0.00 | 0.00 | 0.00 | 68 | 1007.2 |
| 20260509012330 | 63 | 204 | 1.0 | 3.0 | 0.00 | 0.00 | 0.00 | 66 | 1007.1 |
| 20260509011333 | 65 | 210 | 2.0 | 5.0 | 0.00 | 0.00 | 0.00 | 64 | 1007.2 |
| 20260509010329 | 66 | 225 | 2.0 | 4.0 | 0.00 | 0.00 | 0.00 | 61 | 1007.2 |
| 20260509005358 | 67 | 215 | 3.0 | 7.0 | 0.00 | 0.00 | 0.00 | 59 | 1007.3 |
| 20260509004330 | 67 | 218 | 5.0 | 7.0 | 0.00 | 0.00 | 0.00 | 57 | 1007.3 |
| 20260509003408 | 68 | 225 | 4.0 | 8.0 | 0.00 | 0.00 | 0.00 | 57 | 1007.2 |
| 20260509002333 | 68 | 221 | 5.0 | 8.0 | 0.00 | 0.00 | 0.00 | 56 | 1007.3 |
| 20260509001404 | 68 | 251 | 5.0 | 8.0 | 0.00 | 0.00 | 0.00 | 58 | 1007.2 |
| 20260509000340 | 69 | 251 | 5.0 | 10.0 | 0.00 | 0.00 | 0.00 | 57 | 1007.2 |
| 20260508235330 | 69 | 255 | 6.0 | 11.0 | 0.00 | 0.00 | 0.00 | 57 | 1007.3 |
| 20260508235033 | 69 | 207 | 6.0 | 9.0 | 0.00 | 0.00 | 0.00 | 57 | 1007.3 |
| 20260508233536 | 69 | 187 | 5.0 | 10.0 | 0.00 | 0.00 | 0.00 | 58 | 1007.4 |
| 20260508232331 | 69 | 210 | 5.0 | 8.0 | 0.00 | 0.00 | 0.00 | 58 | 1007.4 |
| 20260508231339 | 69 | 208 | 5.0 | 11.0 | 0.00 | 0.00 | 0.00 | 56 | 1007.5 |
| 20260508230806 | 70 | 221 | 6.0 | 10.0 | 0.00 | 0.00 | 0.00 | 57 | 1007.5 |
| 20260508225333 | 70 | 214 | 6.0 | 10.0 | 0.00 | 0.00 | 0.00 | 55 | 1007.7 |
| 20260508224346 | 70 | 235 | 6.0 | 12.0 | 0.00 | 0.00 | 0.00 | 56 | 1007.8 |
| 20260508223403 | 71 | 205 | 8.0 | 12.0 | 0.00 | 0.00 | 0.00 | 53 | 1007.8 |
| 20260508222330 | 71 | 198 | 6.0 | 11.0 | 0.00 | 0.00 | 0.00 | 53 | 1007.8 |
| 20260508221337 | 70 | 207 | 7.0 | 12.0 | 0.00 | 0.00 | 0.00 | 53 | 1007.8 |
| 20260508220354 | 69 | 146 | 6.0 | 10.0 | 0.00 | 0.00 | 0.00 | 53 | 1007.8 |
| 20260508215334 | 71 | 202 | 7.0 | 11.0 | 0.00 | 0.00 | 0.00 | 49 | 1007.9 |
| 20260508214338 | 72 | 212 | 7.0 | 13.0 | 0.00 | 0.00 | 0.00 | 50 | 1008.0 |
| 20260508213338 | 75 | 172 | 8.0 | 14.0 | 0.00 | 0.00 | 0.00 | 46 | 1008.1 |
| 20260508212336 | 75 | 236 | 4.0 | 8.0 | 0.00 | 0.00 | 0.00 | 39 | 1008.2 |
| 20260508211341 | 74 | 173 | 2.0 | 7.0 | 0.00 | 0.00 | 0.00 | 44 | 1008.3 |
| 20260508210340 | 73 | 203 | 1.0 | 6.0 | 0.00 | 0.00 | 0.00 | 41 | 1008.5 |
| 20260508205346 | 73 | 89 | 2.0 | 6.0 | 0.00 | 0.00 | 0.00 | 46 | 1008.5 |
| 20260508204331 | 72 | 121 | 2.0 | 5.0 | 0.00 | 0.00 | 0.00 | 48 | 1008.6 |
| 20260508203349 | 71 | 191 | 3.0 | 5.0 | 0.00 | 0.00 | 0.00 | 48 | 1008.6 |
| 20260508202330 | 71 | 155 | 2.0 | 4.0 | 0.00 | 0.00 | 0.00 | 48 | 1008.6 |
| 20260508201355 | 71 | 211 | 2.0 | 5.0 | 0.00 | 0.00 | 0.00 | 50 | 1008.7 |
| 20260508200353 | 70 | 232 | 2.0 | 5.0 | 0.00 | 0.00 | 0.00 | 51 | 1008.8 |
| 20260508195339 | 70 | 187 | 4.0 | 5.0 | 0.00 | 0.00 | 0.00 | 50 | 1008.7 |
| 20260508194333 | 71 | 149 | 2.0 | 4.0 | 0.00 | 0.00 | 0.00 | 48 | 1008.7 |
| 20260508193352 | 71 | 146 | 1.0 | 6.0 | 0.00 | 0.00 | 0.00 | 47 | 1008.7 |
| 20260508192338 | 71 | 122 | 4.0 | 8.0 | 0.00 | 0.00 | 0.00 | 47 | 1008.7 |
| 20260508191333 | 72 | 173 | 3.0 | 6.0 | 0.00 | 0.00 | 0.00 | 47 | 1008.8 |
| 20260508190330 | 72 | 152 | 3.0 | 8.0 | 0.00 | 0.00 | 0.00 | 48 | 1008.8 |
| 20260508185339 | 72 | 208 | 4.0 | 10.0 | 0.00 | 0.00 | 0.00 | 47 | 1008.9 |
| 20260508184346 | 72 | 118 | 5.0 | 8.0 | 0.00 | 0.00 | 0.00 | 48 | 1009.0 |
| 20260508183344 | 71 | 134 | 5.0 | 10.0 | 0.00 | 0.00 | 0.00 | 50 | 1009.1 |
| 20260508182330 | 70 | 166 | 4.0 | 10.0 | 0.00 | 0.00 | 0.00 | 55 | 1009.3 |
| 20260508181337 | 69 | 190 | 5.0 | 8.0 | 0.00 | 0.00 | 0.00 | 56 | 1009.5 |
| 20260508180336 | 68 | 181 | 4.0 | 9.0 | 0.00 | 0.00 | 0.00 | 62 | 1009.6 |
| 20260508175344 | 67 | 216 | 5.0 | 10.0 | 0.00 | 0.00 | 0.00 | 62 | 1009.8 |
| 20260508174331 | 66 | 166 | 7.0 | 11.0 | 0.00 | 0.00 | 0.00 | 61 | 1010.0 |
| 20260508173454 | 65 | 203 | 6.0 | 10.0 | 0.00 | 0.00 | 0.00 | 65 | 1010.3 |
| 20260508172351 | 65 | 194 | 3.0 | 7.0 | 0.00 | 0.00 | 0.00 | 66 | 1010.4 |
| 20260508171337 | 65 | 193 | 3.0 | 6.0 | 0.00 | 0.00 | 0.00 | 65 | 1010.4 |
| 20260508170334 | 65 | 203 | 3.0 | 6.0 | 0.00 | 0.00 | 0.00 | 65 | 1010.5 |
| 20260508165808 | 65 | 252 | 1.0 | 4.0 | 0.00 | 0.00 | 0.00 | 65 | 1010.3 |
| 20260508164329 | 65 | 172 | 3.0 | 5.0 | 0.00 | 0.00 | 0.00 | 65 | 1010.0 |
| 20260508163410 | 65 | 85 | 2.0 | 6.0 | 0.00 | 0.00 | 0.00 | 68 | 1009.9 |
| 20260508162335 | 65 | 177 | 3.0 | 6.0 | 0.00 | 0.00 | 0.00 | 67 | 1009.8 |
| 20260508161341 | 65 | 176 | 4.0 | 9.0 | 0.00 | 0.00 | 0.00 | 68 | 1009.8 |
| 20260508160339 | 65 | 135 | 3.0 | 6.0 | 0.00 | 0.00 | 0.00 | 67 | 1009.8 |
| 20260508155345 | 65 | 186 | 4.0 | 6.0 | 0.00 | 0.00 | 0.00 | 66 | 1009.8 |
| 20260508154331 | 65 | 188 | 2.0 | 5.0 | 0.00 | 0.00 | 0.00 | 67 | 1009.7 |
| 20260508153331 | 65 | 129 | 3.0 | 4.0 | 0.00 | 0.00 | 0.00 | 68 | 1009.6 |
| 20260508152337 | 65 | 49 | 2.0 | 3.0 | 0.00 | 0.00 | 0.00 | 71 | 1009.5 |
| 20260508151343 | 65 | 110 | 2.0 | 5.0 | 0.00 | 0.00 | 0.00 | 68 | 1009.6 |
| 20260508150340 | 64 | 187 | 2.0 | 5.0 | 0.00 | 0.00 | 0.00 | 68 | 1010.0 |
| 20260508145347 | 63 | 158 | 2.0 | 4.0 | 0.00 | 0.00 | 0.00 | 72 | 1010.2 |
| 20260508144332 | 62 | 190 | 1.0 | 6.0 | 0.00 | 0.00 | 0.00 | 73 | 1010.4 |
| 20260508143328 | 60 | 169 | 1.0 | 4.0 | 0.00 | 0.00 | 0.00 | 78 | 1010.6 |
| 20260508142351 | 58 | 102 | 2.0 | 4.0 | 0.00 | 0.00 | 0.00 | 78 | 1010.8 |
| 20260508141343 | 57 | 170 | 1.0 | 3.0 | 0.00 | 0.00 | 0.00 | 80 | 1011.0 |
| 20260508140809 | 56 | 129 | 0.0 | 2.0 | 0.00 | 0.00 | 0.00 | 81 | 1011.2 |
| 20260508135344 | 55 | 335 | 0.0 | 3.0 | 0.00 | 0.00 | 0.00 | 82 | 1011.2 |
| 20260508134330 | 55 | 20 | 2.0 | 4.0 | 0.00 | 0.00 | 0.00 | 83 | 1010.8 |
| 20260508133348 | 54 | 21 | 3.0 | 5.0 | 0.00 | 0.00 | 0.00 | 83 | 1010.5 |
| 20260508132332 | 54 | 31 | 3.0 | 6.0 | 0.00 | 0.00 | 0.00 | 83 | 1010.2 |
| 20260508132039 | 54 | 89 | 1.0 | 3.0 | 0.00 | 0.00 | 0.00 | 83 | 1010.1 |
| 20260508130330 | 53 | 145 | 1.0 | 3.0 | 0.00 | 0.00 | 0.00 | 87 | 1010.3 |
| 20260508125338 | 51 | 100 | 0.0 | 3.0 | 0.00 | 0.00 | 0.00 | 87 | 1010.3 |
| 20260508124344 | 51 | 22 | 3.0 | 7.0 | 0.00 | 0.00 | 0.00 | 86 | 1010.2 |
| 20260508122331 | 51 | 13 | 3.0 | 4.0 | 0.00 | 0.00 | 0.00 | 86 | 1010.6 |
| 20260508121400 | 51 | 360 | 0.0 | 2.0 | 0.00 | 0.00 | 0.00 | 85 | 1010.5 |
| 20260508120336 | 51 | 15 | 4.0 | 5.0 | 0.00 | 0.00 | 0.00 | 84 | 1009.5 |
| 20260508115343 | 51 | 155 | 1.0 | 3.0 | 0.00 | 0.00 | 0.00 | 83 | 1009.5 |
| 20260508114330 | 50 | 34 | 2.0 | 3.0 | 0.00 | 0.00 | 0.00 | 84 | 1009.5 |
| 20260508113328 | 50 | 203 | 1.0 | 3.0 | 0.00 | 0.00 | 0.00 | 86 | 1009.7 |
| 20260508112336 | 49 | 25 | 0.0 | 2.0 | 0.00 | 0.00 | 0.00 | 88 | 1009.4 |
| 20260508111538 | 49 | 9 | 1.0 | 3.0 | 0.00 | 0.00 | 0.00 | 89 | 1009.4 |
| 20260508110340 | 49 | 14 | 0.0 | 1.0 | 0.00 | 0.00 | 0.00 | 89 | 1009.6 |
| 20260508105345 | 49 | 15 | 0.0 | 2.0 | 0.00 | 0.00 | 0.00 | 89 | 1009.4 |
| 20260508104332 | 49 | 14 | 0.0 | 0.0 | 0.00 | 0.00 | 0.00 | 89 | 1009.3 |
| 20260508103353 | 48 | 14 | 0.0 | 3.0 | 0.00 | 0.00 | 0.00 | 90 | 1009.3 |
| 20260508102333 | 47 | 15 | 2.0 | 4.0 | 0.00 | 0.00 | 0.00 | 91 | 1009.4 |
| 20260508101335 | 47 | 352 | 0.0 | 1.0 | 0.00 | 0.00 | 0.00 | 91 | 1009.4 |
| 20260508100353 | 47 | 19 | 0.0 | 0.0 | 0.00 | 0.00 | 0.00 | 92 | 1009.5 |
| 20260508095332 | 47 | 18 | 0.0 | 2.0 | 0.00 | 0.00 | 0.00 | 92 | 1009.6 |
| 20260508094540 | 46 | 18 | 0.0 | 2.0 | 0.00 | 0.00 | 0.00 | 92 | 1009.6 |
| 20260508093810 | 46 | 18 | 0.0 | 2.0 | 0.00 | 0.00 | 0.00 | 92 | 1009.7 |
| 20260508092807 | 46 | 19 | 2.0 | 3.0 | 0.00 | 0.00 | 0.00 | 93 | 1009.5 |